createdAt,value
2018-09-18T00:02:18.756Z,12.50
2018-09-18T00:04:47.013Z,12.50
2018-09-18T00:07:15.377Z,12.50
2018-09-18T00:09:43.695Z,12.40
2018-09-18T00:12:12.005Z,12.40
2018-09-18T00:14:40.356Z,12.40
2018-09-18T00:17:08.628Z,12.40
2018-09-18T00:19:36.967Z,12.30
2018-09-18T00:22:05.306Z,12.30
2018-09-18T00:24:33.638Z,12.20
2018-09-18T00:27:01.908Z,12.20
2018-09-18T00:29:30.235Z,12.20
2018-09-18T00:31:58.508Z,12.10
2018-09-18T00:34:26.788Z,12.10
2018-09-18T00:36:55.070Z,12.10
2018-09-18T00:39:23.392Z,12.00
2018-09-18T00:41:51.738Z,12.00
2018-09-18T00:44:20.102Z,12.00
2018-09-18T00:46:48.415Z,12.00
2018-09-18T00:49:17.287Z,11.90
2018-09-18T00:51:45.542Z,11.90
2018-09-18T00:54:13.888Z,11.90
2018-09-18T00:56:42.167Z,11.80
2018-09-18T00:59:10.524Z,11.80
2018-09-18T01:01:39.119Z,11.70
2018-09-18T01:04:07.456Z,11.70
2018-09-18T01:06:35.785Z,11.70
2018-09-18T01:09:06.014Z,11.70
2018-09-18T01:11:34.303Z,11.60
2018-09-18T01:14:02.582Z,11.60
2018-09-18T01:16:30.842Z,11.60
2018-09-18T01:18:59.168Z,11.60
2018-09-18T01:21:27.571Z,11.60
2018-09-18T01:23:55.985Z,11.60
2018-09-18T01:26:24.387Z,11.60
2018-09-18T01:28:52.717Z,11.60
2018-09-18T01:31:21.097Z,11.50
2018-09-18T01:33:49.543Z,11.50
2018-09-18T01:36:17.881Z,11.50
2018-09-18T01:38:46.261Z,11.50
2018-09-18T01:41:14.641Z,11.40
2018-09-18T01:43:43.172Z,11.40
2018-09-18T01:46:11.546Z,11.40
2018-09-18T01:48:40.221Z,11.40
2018-09-18T01:51:08.655Z,11.30
2018-09-18T01:53:37.012Z,11.30
2018-09-18T01:56:05.419Z,11.20
2018-09-18T01:58:33.772Z,11.20
2018-09-18T02:01:02.117Z,11.20
2018-09-18T02:03:30.527Z,11.20
2018-09-18T02:05:58.956Z,11.20
2018-09-18T02:08:27.248Z,11.20
2018-09-18T02:10:55.635Z,11.20
2018-09-18T02:13:24.125Z,11.10
2018-09-18T02:15:52.474Z,11.10
2018-09-18T02:18:20.874Z,11.10
2018-09-18T02:20:49.304Z,11.10
2018-09-18T02:23:17.722Z,11.00
2018-09-18T02:25:46.167Z,11.00
2018-09-18T02:28:14.552Z,11.00
2018-09-18T02:30:43.611Z,11.00
2018-09-18T02:33:11.936Z,11.00
2018-09-18T02:35:40.342Z,11.00
2018-09-18T02:38:08.712Z,10.90
2018-09-18T02:40:37.079Z,11.00
2018-09-18T02:43:05.424Z,10.90
2018-09-18T02:45:33.927Z,10.90
2018-09-18T02:48:02.317Z,10.90
2018-09-18T02:50:30.678Z,10.90
2018-09-18T02:52:59.061Z,10.90
2018-09-18T02:55:27.473Z,10.90
2018-09-18T02:57:55.820Z,10.80
2018-09-18T03:00:24.154Z,10.80
2018-09-18T03:02:52.571Z,10.70
2018-09-18T03:05:21.045Z,10.70
2018-09-18T03:07:49.380Z,10.70
2018-09-18T03:10:17.776Z,10.70
2018-09-18T03:12:46.118Z,10.60
2018-09-18T03:15:14.561Z,10.60
2018-09-18T03:17:42.964Z,10.60
2018-09-18T03:20:11.386Z,10.60
2018-09-18T03:22:39.734Z,10.60
2018-09-18T03:25:08.212Z,10.50
2018-09-18T03:27:36.683Z,10.50
2018-09-18T03:30:05.253Z,10.50
2018-09-18T03:32:33.629Z,10.50
2018-09-18T03:35:02.030Z,10.50
2018-09-18T03:37:30.403Z,10.50
2018-09-18T03:39:58.895Z,10.50
2018-09-18T03:42:27.347Z,10.50
2018-09-18T03:44:55.756Z,10.50
2018-09-18T03:47:24.111Z,10.50
2018-09-18T03:49:53.787Z,10.50
2018-09-18T03:52:22.229Z,10.40
2018-09-18T03:54:50.616Z,10.40
2018-09-18T03:57:19.201Z,10.40
2018-09-18T03:59:47.559Z,10.40
2018-09-18T04:02:15.998Z,10.30
2018-09-18T04:04:44.385Z,10.30
2018-09-18T04:07:12.736Z,10.30
2018-09-18T04:09:42.039Z,10.30
2018-09-18T04:12:10.404Z,10.30
2018-09-18T04:14:38.873Z,10.20
2018-09-18T04:17:07.240Z,10.20
2018-09-18T04:19:35.589Z,10.20
2018-09-18T04:22:03.954Z,10.20
2018-09-18T04:24:32.340Z,10.20
2018-09-18T04:27:01.599Z,10.20
2018-09-18T04:29:29.981Z,10.10
2018-09-18T04:31:58.355Z,10.10
2018-09-18T04:34:26.791Z,10.10
2018-09-18T04:36:55.215Z,10.10
2018-09-18T04:39:23.560Z,10.00
2018-09-18T04:41:51.906Z,10.00
2018-09-18T04:44:20.287Z,9.90
2018-09-18T04:46:48.725Z,9.80
2018-09-18T04:49:17.053Z,9.90
2018-09-18T04:51:45.464Z,9.90
2018-09-18T04:54:13.771Z,9.90
2018-09-18T04:56:42.901Z,9.90
2018-09-18T04:59:11.273Z,9.90
2018-09-18T05:01:39.630Z,9.90
2018-09-18T05:04:07.975Z,9.90
2018-09-18T05:06:36.739Z,9.90
2018-09-18T05:09:08.757Z,9.90
2018-09-18T05:11:37.160Z,9.90
2018-09-18T05:14:05.968Z,9.90
2018-09-18T05:16:37.965Z,9.90
2018-09-18T05:19:08.110Z,9.80
2018-09-18T05:21:36.692Z,9.80
2018-09-18T05:24:05.264Z,9.80
2018-09-18T05:26:33.704Z,9.80
2018-09-18T05:29:05.361Z,9.90
2018-09-18T05:31:33.779Z,9.90
2018-09-18T05:34:02.143Z,9.90
2018-09-18T05:36:30.588Z,9.90
2018-09-18T05:38:59.085Z,9.90
2018-09-18T05:41:27.449Z,10.00
2018-09-18T05:43:55.881Z,10.00
2018-09-18T05:46:24.314Z,10.00
2018-09-18T05:48:52.724Z,10.00
2018-09-18T05:51:21.367Z,10.00
2018-09-18T05:53:49.755Z,10.10
2018-09-18T05:56:18.114Z,10.10
2018-09-18T05:58:46.662Z,10.10
2018-09-18T06:01:15.041Z,10.20
2018-09-18T06:03:43.624Z,10.20
2018-09-18T06:06:11.980Z,10.30
2018-09-18T06:08:40.804Z,10.40
2018-09-18T06:11:09.165Z,10.40
2018-09-18T06:13:37.579Z,10.50
2018-09-18T06:16:06.126Z,10.60
2018-09-18T06:18:34.485Z,10.70
2018-09-18T06:21:02.808Z,10.80
2018-09-18T06:23:31.176Z,10.90
2018-09-18T06:25:59.738Z,11.00
2018-09-18T06:28:28.044Z,11.10
2018-09-18T06:30:56.416Z,11.40
2018-09-18T06:33:24.792Z,11.80
2018-09-18T06:35:53.188Z,12.10
2018-09-18T06:38:21.511Z,12.30
2018-09-18T06:40:49.853Z,12.60
2018-09-18T06:43:18.818Z,12.70
2018-09-18T06:45:47.290Z,13.00
2018-09-18T06:48:15.585Z,13.30
2018-09-18T06:50:43.937Z,13.60
2018-09-18T06:53:12.313Z,13.70
2018-09-18T06:55:40.705Z,13.80
2018-09-18T06:58:09.032Z,14.00
2018-09-18T07:00:37.355Z,14.10
2018-09-18T07:03:05.715Z,14.30
2018-09-18T07:05:34.082Z,14.40
2018-09-18T07:08:02.467Z,14.60
2018-09-18T07:10:30.820Z,14.70
2018-09-18T07:12:59.150Z,14.70
2018-09-18T07:15:27.505Z,14.80
2018-09-18T07:17:56.001Z,14.80
2018-09-18T07:20:24.290Z,14.80
2018-09-18T07:22:52.601Z,15.00
2018-09-18T07:25:20.952Z,15.20
2018-09-18T07:27:49.572Z,15.40
2018-09-18T07:30:17.932Z,15.50
2018-09-18T07:32:46.221Z,15.80
2018-09-18T07:35:14.600Z,16.10
2018-09-18T07:37:42.940Z,16.30
2018-09-18T07:40:11.338Z,16.50
2018-09-18T07:42:39.620Z,16.60
2018-09-18T07:45:08.067Z,16.90
2018-09-18T07:47:36.364Z,17.10
2018-09-18T07:50:04.642Z,17.40
2018-09-18T07:52:32.919Z,17.50
2018-09-18T07:55:01.203Z,17.80
2018-09-18T07:57:29.559Z,18.00
2018-09-18T07:59:57.910Z,18.20
2018-09-18T08:02:26.372Z,18.40
2018-09-18T08:04:54.768Z,18.80
2018-09-18T08:07:23.084Z,19.10
2018-09-18T08:09:51.430Z,19.40
2018-09-18T08:12:19.699Z,19.90
2018-09-18T08:14:48.029Z,20.30
2018-09-18T08:17:16.430Z,20.70
2018-09-18T08:19:45.115Z,21.30
2018-09-18T08:22:13.327Z,21.60
2018-09-18T08:24:41.732Z,21.80
2018-09-18T08:27:10.073Z,22.00
2018-09-18T08:29:38.613Z,22.20
2018-09-18T08:32:07.127Z,22.30
2018-09-18T08:34:35.581Z,22.60
2018-09-18T08:37:03.932Z,22.70
2018-09-18T08:39:32.432Z,22.80
2018-09-18T08:42:00.817Z,22.90
2018-09-18T08:44:29.112Z,22.90
2018-09-18T08:46:57.446Z,23.00
2018-09-18T08:49:25.771Z,23.10
2018-09-18T08:51:54.207Z,23.20
2018-09-18T08:54:22.531Z,23.30
2018-09-18T08:56:51.030Z,23.50
2018-09-18T08:59:19.315Z,23.60
2018-09-18T09:01:47.687Z,23.60
2018-09-18T09:04:16.013Z,23.80
2018-09-18T09:06:44.489Z,24.10
2018-09-18T09:09:14.052Z,24.20
2018-09-18T09:11:44.918Z,24.30
2018-09-18T09:14:13.422Z,24.40
2018-09-18T09:16:42.082Z,24.40
2018-09-18T09:19:10.787Z,24.20
2018-09-18T09:21:39.257Z,24.30
2018-09-18T09:24:07.642Z,24.40
2018-09-18T09:26:36.148Z,24.40
2018-09-18T09:29:04.505Z,24.50
2018-09-18T09:31:32.973Z,24.50
2018-09-18T09:34:02.213Z,24.70
2018-09-18T09:36:30.774Z,24.90
2018-09-18T09:38:59.178Z,24.80
2018-09-18T09:41:27.631Z,24.50
2018-09-18T09:43:55.969Z,24.50
2018-09-18T09:46:24.393Z,24.70
2018-09-18T09:48:52.721Z,24.90
2018-09-18T09:51:21.302Z,25.20
2018-09-18T09:53:49.839Z,25.30
2018-09-18T09:56:18.189Z,25.30
2018-09-18T09:58:46.667Z,25.50
2018-09-18T10:01:20.451Z,25.70
2018-09-18T10:03:48.945Z,25.70
2018-09-18T10:06:17.319Z,25.80
2018-09-18T10:08:45.823Z,25.90
2018-09-18T10:11:14.576Z,25.80
2018-09-18T10:13:42.897Z,26.00
2018-09-18T10:16:11.288Z,26.00
2018-09-18T10:18:39.832Z,26.00
2018-09-18T10:21:09.334Z,26.10
2018-09-18T10:23:37.856Z,26.10
2018-09-18T10:26:06.351Z,26.70
2018-09-18T10:28:35.126Z,26.50
2018-09-18T10:31:03.712Z,26.40
2018-09-18T10:33:32.049Z,26.40
2018-09-18T10:36:00.457Z,26.70
2018-09-18T10:38:28.872Z,26.90
2018-09-18T10:40:57.407Z,26.90
2018-09-18T10:43:25.868Z,26.60
2018-09-18T10:45:54.349Z,26.40
2018-09-18T10:48:24.610Z,26.50
2018-09-18T10:50:58.239Z,26.70
2018-09-18T10:53:26.787Z,26.80
2018-09-18T10:55:55.275Z,27.10
2018-09-18T10:58:30.113Z,27.10
2018-09-18T11:00:58.482Z,27.40
2018-09-18T11:03:26.792Z,27.50
2018-09-18T11:05:55.242Z,27.70
2018-09-18T11:08:23.674Z,27.80
2018-09-18T11:10:52.044Z,27.80
2018-09-18T11:13:20.695Z,28.00
2018-09-18T11:15:49.067Z,28.00
2018-09-18T11:18:17.587Z,28.00
2018-09-18T11:20:46.204Z,28.20
2018-09-18T11:23:14.499Z,28.30
2018-09-18T11:25:42.742Z,28.00
2018-09-18T11:28:11.095Z,27.90
2018-09-18T11:30:39.529Z,27.80
2018-09-18T11:33:08.625Z,27.90
2018-09-18T11:35:37.095Z,27.90
2018-09-18T11:38:05.391Z,27.90
2018-09-18T11:40:34.323Z,27.80
2018-09-18T11:43:02.587Z,27.70
2018-09-18T11:45:33.297Z,27.60
2018-09-18T11:48:01.723Z,27.70
2018-09-18T11:50:30.307Z,27.70
2018-09-18T11:52:59.455Z,27.80
2018-09-18T11:55:27.722Z,27.90
2018-09-18T11:57:56.577Z,27.90
2018-09-18T12:00:24.997Z,28.00
2018-09-18T12:02:56.072Z,28.00
2018-09-18T12:05:24.433Z,28.00
2018-09-18T12:07:52.833Z,28.10
2018-09-18T12:10:21.213Z,28.20
2018-09-18T12:12:49.980Z,28.10
2018-09-18T12:15:18.726Z,28.20
2018-09-18T12:17:47.432Z,28.10
2018-09-18T12:20:15.748Z,28.00
2018-09-18T12:22:44.150Z,27.90
2018-09-18T12:25:12.679Z,28.10
2018-09-18T12:27:41.103Z,28.00
2018-09-18T12:30:09.525Z,27.90
2018-09-18T12:32:37.813Z,28.00
2018-09-18T12:35:06.569Z,28.10
2018-09-18T12:37:34.780Z,28.00
2018-09-18T12:40:03.065Z,28.00
2018-09-18T12:42:31.463Z,27.90
2018-09-18T12:44:59.610Z,27.80
2018-09-18T12:47:27.887Z,27.70
2018-09-18T12:49:56.493Z,27.60
2018-09-18T12:52:24.444Z,27.70
2018-09-18T12:54:52.810Z,27.70
2018-09-18T12:57:21.299Z,27.90
2018-09-18T12:59:49.760Z,28.00
2018-09-18T13:02:18.101Z,28.00
2018-09-18T13:04:46.382Z,28.20
2018-09-18T13:07:14.713Z,28.30
2018-09-18T13:09:42.989Z,28.40
2018-09-18T13:12:11.253Z,28.60
2018-09-18T13:14:39.659Z,28.60
2018-09-18T13:17:07.949Z,28.50
2018-09-18T13:19:36.218Z,28.50
2018-09-18T13:22:04.477Z,28.50
2018-09-18T13:24:32.772Z,28.50
2018-09-18T13:27:01.262Z,28.50
2018-09-18T13:29:29.633Z,28.30
2018-09-18T13:31:58.112Z,28.10
2018-09-18T13:34:26.468Z,28.00
2018-09-18T13:36:55.049Z,27.90
2018-09-18T13:39:23.390Z,27.90
2018-09-18T13:41:51.784Z,27.80
2018-09-18T13:44:20.080Z,27.80
2018-09-18T13:46:48.537Z,27.80
2018-09-18T13:49:16.836Z,27.80
2018-09-18T13:51:45.232Z,27.80
2018-09-18T13:54:13.388Z,27.90
2018-09-18T13:56:41.933Z,28.10
2018-09-18T13:59:10.173Z,28.30
2018-09-18T14:01:38.629Z,28.30
2018-09-18T14:04:06.802Z,28.40
2018-09-18T14:06:35.193Z,28.40
2018-09-18T14:09:03.938Z,28.40
2018-09-18T14:11:32.244Z,28.40
2018-09-18T14:14:00.532Z,28.30
2018-09-18T14:16:28.797Z,28.30
2018-09-18T14:18:57.097Z,28.40
2018-09-18T14:21:25.414Z,28.50
2018-09-18T14:23:53.722Z,28.50
2018-09-18T14:26:22.104Z,28.50
2018-09-18T14:28:50.392Z,28.50
2018-09-18T14:31:18.860Z,28.50
2018-09-18T14:33:47.147Z,28.50
2018-09-18T14:36:15.530Z,28.40
2018-09-18T14:38:44.112Z,28.20
2018-09-18T14:41:12.397Z,28.00
2018-09-18T14:43:40.724Z,28.00
2018-09-18T14:46:09.135Z,28.00
2018-09-18T14:48:37.585Z,27.90
2018-09-18T14:51:06.149Z,27.80
2018-09-18T14:53:34.405Z,27.80
2018-09-18T14:56:02.709Z,27.70
2018-09-18T14:58:31.104Z,27.70
2018-09-18T15:00:59.508Z,27.60
2018-09-18T15:03:27.852Z,27.50
2018-09-18T15:05:56.312Z,27.60
2018-09-18T15:08:24.736Z,27.50
2018-09-18T15:10:53.040Z,27.60
2018-09-18T15:13:21.442Z,27.50
2018-09-18T15:15:49.997Z,27.50
2018-09-18T15:18:18.395Z,27.50
2018-09-18T15:20:46.715Z,27.50
2018-09-18T15:23:15.015Z,27.50
2018-09-18T15:25:43.369Z,27.50
2018-09-18T15:28:11.697Z,27.50
2018-09-18T15:30:39.987Z,27.40
2018-09-18T15:33:08.252Z,27.40
2018-09-18T15:35:36.528Z,27.40
2018-09-18T15:38:04.862Z,27.40
2018-09-18T15:40:34.197Z,27.40
2018-09-18T15:43:02.620Z,27.30
2018-09-18T15:45:30.883Z,27.30
2018-09-18T15:47:59.114Z,27.20
2018-09-18T15:50:27.480Z,27.20
2018-09-18T15:52:55.823Z,27.20
2018-09-18T15:55:25.343Z,27.10
2018-09-18T15:57:53.705Z,27.00
2018-09-18T16:00:22.222Z,26.90
2018-09-18T16:02:51.874Z,26.70
2018-09-18T16:05:20.865Z,26.50
2018-09-18T16:07:49.462Z,26.30
2018-09-18T16:10:18.476Z,26.00
2018-09-18T16:12:47.194Z,25.90
2018-09-18T16:15:16.069Z,26.00
2018-09-18T16:17:44.592Z,26.10
2018-09-18T16:20:12.971Z,26.20
2018-09-18T16:22:41.251Z,26.20
2018-09-18T16:25:09.710Z,26.10
2018-09-18T16:27:37.991Z,26.10
2018-09-18T16:30:06.405Z,25.90
2018-09-18T16:32:34.722Z,25.70
2018-09-18T16:35:03.072Z,25.50
2018-09-18T16:37:31.386Z,25.40
2018-09-18T16:39:59.664Z,25.20
2018-09-18T16:42:28.008Z,25.00
2018-09-18T16:44:56.257Z,25.00
2018-09-18T16:47:24.524Z,24.90
2018-09-18T16:49:52.806Z,24.80
2018-09-18T16:52:21.140Z,24.80
2018-09-18T16:54:49.455Z,24.70
2018-09-18T16:57:17.746Z,24.60
2018-09-18T16:59:46.406Z,24.30
2018-09-18T17:02:14.848Z,24.10
2018-09-18T17:04:43.176Z,23.90
2018-09-18T17:07:11.517Z,23.80
2018-09-18T17:09:40.931Z,23.70
2018-09-18T17:12:09.329Z,23.70
2018-09-18T17:14:37.864Z,23.60
2018-09-18T17:17:06.169Z,23.50
2018-09-18T17:19:34.654Z,23.50
2018-09-18T17:22:03.235Z,23.40
2018-09-18T17:24:31.885Z,23.20
2018-09-18T17:27:00.400Z,22.80
2018-09-18T17:29:29.075Z,22.40
2018-09-18T17:31:57.593Z,21.80
2018-09-18T17:34:26.351Z,21.30
2018-09-18T17:36:54.741Z,20.90
2018-09-18T17:39:24.507Z,20.60
2018-09-18T17:42:06.476Z,20.20
2018-09-18T17:44:37.370Z,19.90
2018-09-18T17:47:06.878Z,19.60
2018-09-18T17:49:42.764Z,19.40
2018-09-18T17:57:39.035Z,18.80
2018-09-18T18:00:07.633Z,18.60
2018-09-18T18:02:37.564Z,18.60
2018-09-18T18:05:20.344Z,18.60
2018-09-18T18:07:49.439Z,18.50
2018-09-18T18:10:18.020Z,18.50
2018-09-18T18:12:46.595Z,18.40
2018-09-18T18:15:15.065Z,18.40
2018-09-18T18:17:43.609Z,18.40
2018-09-18T18:20:12.209Z,18.40
2018-09-18T18:22:42.490Z,18.30
2018-09-18T18:25:12.665Z,18.30
2018-09-18T18:27:42.656Z,18.30
2018-09-18T18:30:12.825Z,18.20
2018-09-18T18:32:41.354Z,18.10
2018-09-18T18:35:09.698Z,18.10
2018-09-18T18:37:39.112Z,18.10
2018-09-18T18:40:07.511Z,18.00
2018-09-18T18:42:35.941Z,18.00
2018-09-18T18:45:04.627Z,17.90
2018-09-18T18:47:32.986Z,17.90
2018-09-18T18:50:01.723Z,17.80
2018-09-18T18:52:30.489Z,17.80
2018-09-18T18:54:59.148Z,17.80
2018-09-18T18:57:27.744Z,17.70
2018-09-18T18:59:56.116Z,17.70
2018-09-18T19:02:25.011Z,17.60
2018-09-18T19:04:53.540Z,17.50
2018-09-18T19:07:21.943Z,17.50
2018-09-18T19:09:50.354Z,17.50
2018-09-18T19:12:18.790Z,17.50
2018-09-18T19:14:47.571Z,17.40
2018-09-18T19:17:16.066Z,17.40
2018-09-18T19:19:44.429Z,17.40
2018-09-18T19:22:13.128Z,17.30
2018-09-18T19:24:41.552Z,17.20
2018-09-18T19:27:10.043Z,17.20
2018-09-18T19:29:38.348Z,17.20
2018-09-18T19:32:06.760Z,17.10
2018-09-18T19:34:35.076Z,17.10
2018-09-18T19:37:03.583Z,17.10
2018-09-18T19:39:32.112Z,17.10
2018-09-18T19:42:00.493Z,17.10
2018-09-18T19:44:29.100Z,17.10
2018-09-18T19:46:57.986Z,17.00
2018-09-18T19:49:26.347Z,17.00
2018-09-18T19:51:54.817Z,17.00
2018-09-18T19:54:23.251Z,17.00
2018-09-18T19:56:51.633Z,17.00
2018-09-18T19:59:19.973Z,17.00
2018-09-18T20:01:48.451Z,17.00
2018-09-18T20:04:16.850Z,17.00
2018-09-18T20:06:45.151Z,17.00
2018-09-18T20:09:13.542Z,16.90
2018-09-18T20:11:41.982Z,16.90
2018-09-18T20:14:10.416Z,16.90
2018-09-18T20:16:38.756Z,16.90
2018-09-18T20:19:07.551Z,16.90
2018-09-18T20:21:35.879Z,16.80
2018-09-18T20:24:04.153Z,16.80
2018-09-18T20:26:32.638Z,16.80
2018-09-18T20:29:01.094Z,16.80
2018-09-18T20:31:29.343Z,16.70
2018-09-18T20:33:57.856Z,16.70
2018-09-18T20:36:26.361Z,16.70
2018-09-18T20:38:54.718Z,16.70
2018-09-18T20:41:23.036Z,16.70
2018-09-18T20:43:51.477Z,16.60
2018-09-18T20:46:19.848Z,16.60
2018-09-18T20:48:48.301Z,16.60
2018-09-18T20:51:16.665Z,16.50
2018-09-18T20:53:44.984Z,16.50
2018-09-18T20:56:13.397Z,16.50
2018-09-18T21:04:30.181Z,16.40
2018-09-18T21:06:58.882Z,16.50
2018-09-18T21:09:27.486Z,16.50
2018-09-18T21:12:00.885Z,16.40
2018-09-18T21:14:33.206Z,16.40
2018-09-18T21:17:01.593Z,16.30
2018-09-18T21:19:29.888Z,16.30
2018-09-18T21:21:58.357Z,16.20
2018-09-18T21:24:26.803Z,16.20
2018-09-18T21:26:55.172Z,16.20
2018-09-18T21:29:23.445Z,16.20
2018-09-18T21:31:51.705Z,16.20
2018-09-18T21:34:20.031Z,16.20
2018-09-18T21:36:48.254Z,16.20
2018-09-18T21:39:16.697Z,16.20
2018-09-18T21:41:44.920Z,16.30
2018-09-18T21:44:13.209Z,16.30
2018-09-18T21:46:41.616Z,16.30
2018-09-18T21:49:13.806Z,16.30
2018-09-18T21:51:42.182Z,16.40
2018-09-18T21:54:11.461Z,16.30
2018-09-18T21:56:39.786Z,16.30
2018-09-18T21:59:08.799Z,16.30
2018-09-18T22:01:38.199Z,16.40
2018-09-18T22:04:06.822Z,16.30
2018-09-18T22:06:36.272Z,16.30
2018-09-18T22:09:05.437Z,16.30
2018-09-18T22:11:33.749Z,16.30
2018-09-18T22:14:02.087Z,16.30
2018-09-18T22:16:30.351Z,16.30
2018-09-18T22:18:58.614Z,16.30
2018-09-18T22:21:26.985Z,16.30
2018-09-18T22:23:55.345Z,16.30
2018-09-18T22:26:23.634Z,16.40
2018-09-18T22:28:51.860Z,16.40
2018-09-18T22:31:20.117Z,16.40
2018-09-18T22:33:48.400Z,16.30
2018-09-18T22:36:16.696Z,16.40
2018-09-18T22:38:44.966Z,16.40
2018-09-18T22:41:13.257Z,16.40
2018-09-18T22:43:41.589Z,16.40
2018-09-18T22:46:09.846Z,16.30
2018-09-18T22:48:38.213Z,16.30
2018-09-18T22:51:06.302Z,16.30
2018-09-18T22:53:35.295Z,16.30
2018-09-18T22:56:04.391Z,16.30
2018-09-18T22:58:33.857Z,16.30
2018-09-18T23:01:05.054Z,16.30
2018-09-18T23:03:34.632Z,16.30
2018-09-18T23:06:03.323Z,16.30
2018-09-18T23:08:31.618Z,16.30
2018-09-18T23:10:59.901Z,16.30
2018-09-18T23:13:28.095Z,16.30
2018-09-18T23:15:56.397Z,16.30
2018-09-18T23:18:24.720Z,16.30
2018-09-18T23:20:52.973Z,16.20
2018-09-18T23:23:21.329Z,16.20
2018-09-18T23:25:49.596Z,16.20
2018-09-18T23:28:17.887Z,16.20
2018-09-18T23:30:46.132Z,16.10
2018-09-18T23:33:14.426Z,16.10
2018-09-18T23:35:42.650Z,16.10
2018-09-18T23:38:11.025Z,16.00
2018-09-18T23:40:39.366Z,16.00
2018-09-18T23:43:07.797Z,16.00
2018-09-18T23:45:36.232Z,15.90
2018-09-18T23:48:05.753Z,15.90
2018-09-18T23:50:35.799Z,15.90
2018-09-18T23:53:05.000Z,15.90
2018-09-18T23:55:34.033Z,15.90
2018-09-18T23:58:02.281Z,15.80
